createdAt,value
2022-10-23T00:00:03.285Z,86
2022-10-23T00:01:03.761Z,86
2022-10-23T00:02:04.646Z,86
2022-10-23T00:03:05.087Z,86
2022-10-23T00:04:05.468Z,86
2022-10-23T00:05:06.319Z,86
2022-10-23T00:06:06.679Z,86
2022-10-23T00:07:07.525Z,86
2022-10-23T00:08:07.922Z,86
2022-10-23T00:09:08.298Z,86
2022-10-23T00:10:08.688Z,86
2022-10-23T00:11:09.101Z,86
2022-10-23T00:12:09.833Z,86
2022-10-23T00:13:10.239Z,86
2022-10-23T00:14:10.634Z,86
2022-10-23T00:15:11.019Z,86
2022-10-23T00:16:11.417Z,86
2022-10-23T00:17:12.245Z,86
2022-10-23T00:18:12.625Z,86
2022-10-23T00:19:13.029Z,86
2022-10-23T00:20:13.776Z,86
2022-10-23T00:21:14.197Z,86
2022-10-23T00:22:14.958Z,86
2022-10-23T00:23:15.346Z,86
2022-10-23T00:24:15.710Z,86
2022-10-23T00:25:16.117Z,86
2022-10-23T00:26:16.480Z,86
2022-10-23T00:27:17.285Z,86
2022-10-23T00:28:17.696Z,86
2022-10-23T00:29:18.076Z,86
2022-10-23T00:30:18.447Z,86
2022-10-23T00:31:18.858Z,86
2022-10-23T00:32:19.612Z,86
2022-10-23T00:33:20.007Z,86
2022-10-23T00:34:20.372Z,86
2022-10-23T00:35:21.094Z,87
2022-10-23T00:36:21.475Z,87
2022-10-23T00:37:22.240Z,87
2022-10-23T00:38:22.639Z,87
2022-10-23T00:39:23.037Z,87
2022-10-23T00:40:23.398Z,87
2022-10-23T00:41:23.801Z,87
2022-10-23T00:42:24.573Z,87
2022-10-23T00:43:24.933Z,87
2022-10-23T00:44:25.334Z,87
2022-10-23T00:45:25.708Z,87
2022-10-23T00:46:26.128Z,87
2022-10-23T00:47:26.949Z,87
2022-10-23T00:48:27.353Z,87
2022-10-23T00:49:27.757Z,87
2022-10-23T00:50:28.555Z,87
2022-10-23T00:51:28.948Z,87
2022-10-23T00:52:29.739Z,87
2022-10-23T00:53:30.133Z,87
2022-10-23T00:54:30.529Z,87
2022-10-23T00:55:30.924Z,87
2022-10-23T00:56:31.296Z,87
2022-10-23T00:57:32.095Z,87
2022-10-23T00:58:32.497Z,87
2022-10-23T00:59:32.861Z,87
2022-10-23T01:00:33.250Z,87
2022-10-23T01:01:33.794Z,87
2022-10-23T01:02:34.720Z,87
2022-10-23T01:03:35.162Z,87
2022-10-23T01:04:35.560Z,87
2022-10-23T01:05:36.374Z,87
2022-10-23T01:06:36.799Z,87
2022-10-23T01:07:37.498Z,87
2022-10-23T01:08:37.905Z,87
2022-10-23T01:09:38.306Z,87
2022-10-23T01:10:38.708Z,87
2022-10-23T01:11:39.091Z,87
2022-10-23T01:12:39.806Z,87
2022-10-23T01:13:40.205Z,87
2022-10-23T01:14:40.603Z,87
2022-10-23T01:15:40.986Z,87
2022-10-23T01:16:41.393Z,87
2022-10-23T01:17:44.437Z,87
2022-10-23T01:18:45.208Z,87
2022-10-23T01:19:45.576Z,87
2022-10-23T01:20:46.411Z,87
2022-10-23T01:21:46.826Z,87
2022-10-23T01:22:47.544Z,87
2022-10-23T01:23:47.985Z,87
2022-10-23T01:24:48.379Z,87
2022-10-23T01:25:48.775Z,87
2022-10-23T01:26:49.139Z,88
2022-10-23T01:27:49.969Z,88
2022-10-23T01:28:50.354Z,88
2022-10-23T01:29:50.714Z,88
2022-10-23T01:30:51.082Z,88
2022-10-23T01:31:51.470Z,88
2022-10-23T01:32:52.257Z,88
2022-10-23T01:33:52.617Z,88
2022-10-23T01:34:52.989Z,88
2022-10-23T01:35:53.716Z,88
2022-10-23T01:36:54.124Z,88
2022-10-23T01:37:54.899Z,88
2022-10-23T01:38:55.331Z,88
2022-10-23T01:39:55.775Z,88
2022-10-23T01:40:56.184Z,88
2022-10-23T01:41:56.545Z,88
2022-10-23T01:42:57.370Z,88
2022-10-23T01:43:57.754Z,88
2022-10-23T01:44:58.154Z,88
2022-10-23T01:45:58.549Z,88
2022-10-23T01:46:58.919Z,88
2022-10-23T01:47:59.659Z,88
2022-10-23T01:49:00.027Z,88
2022-10-23T01:50:00.408Z,88
2022-10-23T01:51:01.210Z,88
2022-10-23T01:52:01.570Z,88
2022-10-23T01:53:02.291Z,88
2022-10-23T01:54:02.660Z,88
2022-10-23T01:55:03.071Z,88
2022-10-23T01:56:03.454Z,88
2022-10-23T01:57:03.861Z,88
2022-10-23T01:58:04.698Z,88
2022-10-23T01:59:05.061Z,88
2022-10-23T02:00:05.465Z,88
2022-10-23T02:01:05.884Z,88
2022-10-23T02:02:06.414Z,88
2022-10-23T02:03:07.344Z,88
2022-10-23T02:04:07.726Z,88
2022-10-23T02:05:08.094Z,88
2022-10-23T02:06:08.872Z,88
2022-10-23T02:07:09.236Z,88
2022-10-23T02:08:10.071Z,88
2022-10-23T02:09:10.473Z,88
2022-10-23T02:10:10.876Z,88
2022-10-23T02:11:11.268Z,88
2022-10-23T02:12:11.633Z,88
2022-10-23T02:13:12.468Z,88
2022-10-23T02:14:12.840Z,88
2022-10-23T02:15:13.220Z,88
2022-10-23T02:16:13.612Z,88
2022-10-23T02:17:14.021Z,88
2022-10-23T02:18:14.711Z,88
2022-10-23T02:19:15.108Z,88
2022-10-23T02:20:15.513Z,88
2022-10-23T02:21:16.251Z,88
2022-10-23T02:22:16.661Z,88
2022-10-23T02:23:17.416Z,88
2022-10-23T02:24:17.818Z,88
2022-10-23T02:25:18.178Z,88
2022-10-23T02:26:18.541Z,88
2022-10-23T02:27:18.903Z,88
2022-10-23T02:28:19.627Z,88
2022-10-23T02:29:19.989Z,88
2022-10-23T02:30:20.378Z,89
2022-10-23T02:31:20.782Z,89
2022-10-23T02:32:21.141Z,89
2022-10-23T02:33:21.965Z,89
2022-10-23T02:34:22.362Z,89
2022-10-23T02:35:22.753Z,89
2022-10-23T02:36:23.460Z,89
2022-10-23T02:37:23.829Z,89
2022-10-23T02:38:24.639Z,89
2022-10-23T02:39:25.020Z,89
2022-10-23T02:40:25.426Z,89
2022-10-23T02:41:25.787Z,89
2022-10-23T02:42:26.259Z,89
2022-10-23T02:43:27.082Z,89
2022-10-23T02:44:27.480Z,89
2022-10-23T02:45:27.900Z,89
2022-10-23T02:46:28.297Z,89
2022-10-23T02:47:28.693Z,89
2022-10-23T02:48:29.464Z,89
2022-10-23T02:49:29.858Z,89
2022-10-23T02:50:30.240Z,89
2022-10-23T02:51:30.921Z,89
2022-10-23T02:52:31.295Z,89
2022-10-23T02:53:32.075Z,89
2022-10-23T02:54:32.469Z,89
2022-10-23T02:55:32.863Z,89
2022-10-23T02:56:34.523Z,89
2022-10-23T02:57:37.119Z,89
2022-10-23T02:58:37.946Z,89
2022-10-23T02:59:38.343Z,89
2022-10-23T03:00:38.704Z,89
2022-10-23T03:01:39.152Z,89
2022-10-23T03:02:39.624Z,89
2022-10-23T03:03:40.331Z,89
2022-10-23T03:04:40.721Z,89
2022-10-23T03:05:41.080Z,89
2022-10-23T03:06:41.828Z,89
2022-10-23T03:07:42.559Z,89
2022-10-23T03:08:43.576Z,89
2022-10-23T03:09:43.973Z,89
2022-10-23T03:10:44.518Z,89
2022-10-23T03:11:44.937Z,89
2022-10-23T03:12:45.552Z,89
2022-10-23T03:13:46.535Z,89
2022-10-23T03:14:46.947Z,89
2022-10-23T03:15:47.342Z,89
2022-10-23T03:16:47.746Z,89
2022-10-23T03:17:48.117Z,89
2022-10-23T03:18:48.840Z,89
2022-10-23T03:19:49.226Z,89
2022-10-23T03:20:49.618Z,89
2022-10-23T03:21:50.430Z,89
2022-10-23T03:22:50.804Z,89
2022-10-23T03:23:51.599Z,89
2022-10-23T03:24:51.998Z,89
2022-10-23T03:25:52.393Z,89
2022-10-23T03:26:52.759Z,89
2022-10-23T03:27:53.122Z,89
2022-10-23T03:28:53.963Z,89
2022-10-23T03:29:54.339Z,89
2022-10-23T03:30:54.736Z,89
2022-10-23T03:31:55.103Z,89
2022-10-23T03:32:55.503Z,89
2022-10-23T03:33:56.232Z,89
2022-10-23T03:34:56.635Z,89
2022-10-23T03:35:57.027Z,89
2022-10-23T03:36:57.439Z,89
2022-10-23T03:37:57.839Z,89
2022-10-23T03:38:58.676Z,89
2022-10-23T03:39:59.078Z,89
2022-10-23T03:40:59.446Z,89
2022-10-23T03:41:59.855Z,89
2022-10-23T03:43:00.273Z,88
2022-10-23T03:44:01.485Z,88
2022-10-23T03:45:01.896Z,88
2022-10-23T03:46:02.297Z,88
2022-10-23T03:47:02.701Z,88
2022-10-23T03:48:03.103Z,88
2022-10-23T03:49:03.935Z,88
2022-10-23T03:50:04.297Z,89
2022-10-23T03:51:04.698Z,89
2022-10-23T03:52:05.418Z,88
2022-10-23T03:53:05.811Z,88
2022-10-23T03:54:06.592Z,88
2022-10-23T03:55:06.982Z,88
2022-10-23T03:56:07.378Z,88
2022-10-23T03:57:07.779Z,88
2022-10-23T03:58:08.151Z,88
2022-10-23T03:59:08.945Z,88
2022-10-23T04:00:09.529Z,88
2022-10-23T04:01:09.993Z,88
2022-10-23T04:02:10.532Z,88
2022-10-23T04:03:10.983Z,88
2022-10-23T04:04:11.723Z,88
2022-10-23T04:05:12.086Z,88
2022-10-23T04:06:12.478Z,88
2022-10-23T04:07:13.528Z,88
2022-10-23T04:08:17.615Z,88
2022-10-23T04:09:20.915Z,88
2022-10-23T04:10:21.308Z,88
2022-10-23T04:11:21.683Z,88
2022-10-23T04:12:22.070Z,88
2022-10-23T04:13:22.450Z,88
2022-10-23T04:14:23.233Z,88
2022-10-23T04:15:23.595Z,88
2022-10-23T04:16:23.953Z,88
2022-10-23T04:17:24.394Z,88
2022-10-23T04:18:24.808Z,88
2022-10-23T04:19:25.633Z,88
2022-10-23T04:20:25.997Z,88
2022-10-23T04:21:26.395Z,88
2022-10-23T04:22:28.438Z,88
2022-10-23T04:23:29.099Z,88
2022-10-23T04:24:29.827Z,88
2022-10-23T04:25:30.204Z,88
2022-10-23T04:26:30.576Z,88
2022-10-23T04:27:30.932Z,88
2022-10-23T04:28:31.327Z,88
2022-10-23T04:29:32.050Z,88
2022-10-23T04:30:32.452Z,88
2022-10-23T04:31:32.843Z,88
2022-10-23T04:32:33.234Z,88
2022-10-23T04:33:33.596Z,88
2022-10-23T04:34:34.398Z,88
2022-10-23T04:35:34.808Z,88
2022-10-23T04:36:35.204Z,88
2022-10-23T04:37:35.933Z,88
2022-10-23T04:38:36.305Z,88
2022-10-23T04:39:37.117Z,88
2022-10-23T04:40:37.507Z,88
2022-10-23T04:41:37.913Z,88
2022-10-23T04:42:38.312Z,88
2022-10-23T04:43:38.685Z,88
2022-10-23T04:44:39.391Z,88
2022-10-23T04:45:39.765Z,88
2022-10-23T04:46:40.143Z,88
2022-10-23T04:47:40.507Z,88
2022-10-23T04:48:40.912Z,88
2022-10-23T04:49:41.734Z,88
2022-10-23T04:50:42.150Z,88
2022-10-23T04:51:42.554Z,88
2022-10-23T04:52:43.181Z,88
2022-10-23T04:53:43.869Z,88
2022-10-23T04:54:44.705Z,88
2022-10-23T04:55:45.070Z,88
2022-10-23T04:56:45.475Z,88
2022-10-23T04:57:45.880Z,88
2022-10-23T04:58:46.286Z,88
2022-10-23T04:59:47.037Z,88
2022-10-23T05:00:47.477Z,88
2022-10-23T05:01:48.052Z,88
2022-10-23T05:02:48.514Z,88
2022-10-23T05:03:48.901Z,88
2022-10-23T05:04:49.655Z,88
2022-10-23T05:05:50.041Z,88
2022-10-23T05:06:50.513Z,88
2022-10-23T05:07:51.257Z,88
2022-10-23T05:08:51.659Z,88
2022-10-23T05:09:52.366Z,88
2022-10-23T05:10:52.734Z,88
2022-10-23T05:11:53.135Z,88
2022-10-23T05:12:53.501Z,88
2022-10-23T05:13:53.861Z,88
2022-10-23T05:14:54.683Z,88
2022-10-23T05:15:55.087Z,88
2022-10-23T05:16:55.458Z,88
2022-10-23T05:17:55.863Z,88
2022-10-23T05:18:56.222Z,88
2022-10-23T05:19:56.986Z,88
2022-10-23T05:20:57.395Z,88
2022-10-23T05:21:57.755Z,88
2022-10-23T05:22:58.496Z,88
2022-10-23T05:24:59.688Z,88
2022-10-23T05:26:00.083Z,88
2022-10-23T05:27:00.469Z,88
2022-10-23T05:28:00.840Z,88
2022-10-23T05:29:01.237Z,88
2022-10-23T05:30:01.950Z,88
2022-10-23T05:31:02.351Z,88
2022-10-23T05:32:02.745Z,88
2022-10-23T05:33:03.140Z,88
2022-10-23T05:34:03.502Z,88
2022-10-23T05:35:04.243Z,88
2022-10-23T05:36:04.602Z,88
2022-10-23T05:37:04.972Z,88
2022-10-23T05:38:05.797Z,88
2022-10-23T05:39:06.200Z,88
2022-10-23T05:40:06.934Z,88
2022-10-23T05:41:07.317Z,88
2022-10-23T05:42:07.696Z,88
2022-10-23T05:43:08.054Z,88
2022-10-23T05:44:08.418Z,88
2022-10-23T05:45:09.235Z,88
2022-10-23T05:46:09.593Z,88
2022-10-23T05:47:09.985Z,88
2022-10-23T05:48:22.234Z,88
2022-10-23T05:49:30.295Z,88
2022-10-23T05:50:31.035Z,88
2022-10-23T05:51:31.435Z,88
2022-10-23T05:52:31.819Z,88
2022-10-23T05:53:32.239Z,88
2022-10-23T05:54:32.617Z,88
2022-10-23T05:55:33.447Z,87
2022-10-23T05:56:33.837Z,87
2022-10-23T05:57:34.234Z,87
2022-10-23T05:58:34.600Z,87
2022-10-23T05:59:34.994Z,87
2022-10-23T06:00:35.755Z,87
2022-10-23T06:01:36.276Z,87
2022-10-23T06:02:36.767Z,87
2022-10-23T06:03:37.208Z,87
2022-10-23T06:04:37.576Z,87
2022-10-23T06:06:38.737Z,87
2022-10-23T06:07:39.105Z,87
2022-10-23T06:08:39.919Z,87
2022-10-23T06:09:40.283Z,87
2022-10-23T06:10:40.984Z,87
2022-10-23T06:11:41.374Z,87
2022-10-23T06:12:41.778Z,87
2022-10-23T06:13:42.182Z,87
2022-10-23T06:14:42.559Z,87
2022-10-23T06:15:43.370Z,87
2022-10-23T06:16:43.767Z,87
2022-10-23T06:17:44.523Z,87
2022-10-23T06:18:45.173Z,87
2022-10-23T06:19:45.540Z,87
2022-10-23T06:20:46.259Z,87
2022-10-23T06:21:46.628Z,87
2022-10-23T06:22:47.069Z,87
2022-10-23T06:23:47.896Z,87
2022-10-23T06:24:48.273Z,87
2022-10-23T06:25:49.115Z,87
2022-10-23T06:26:49.493Z,87
2022-10-23T06:27:49.902Z,87
2022-10-23T06:28:50.300Z,87
2022-10-23T06:29:50.710Z,87
2022-10-23T06:30:51.336Z,87
2022-10-23T06:31:51.897Z,87
2022-10-23T06:32:52.290Z,87
2022-10-23T06:33:52.692Z,87
2022-10-23T06:34:53.102Z,87
2022-10-23T06:35:53.922Z,87
2022-10-23T06:36:54.332Z,87
2022-10-23T06:37:54.750Z,87
2022-10-23T06:38:55.586Z,87
2022-10-23T06:39:56.064Z,87
2022-10-23T06:40:56.786Z,87
2022-10-23T06:41:57.182Z,87
2022-10-23T06:42:57.549Z,87
2022-10-23T06:43:57.954Z,87
2022-10-23T06:44:59.660Z,87
2022-10-23T06:46:01.917Z,87
2022-10-23T06:47:02.322Z,87
2022-10-23T06:48:02.719Z,87
2022-10-23T06:49:03.114Z,87
2022-10-23T06:50:03.519Z,87
2022-10-23T06:51:04.346Z,87
2022-10-23T06:52:04.751Z,87
2022-10-23T06:53:05.151Z,87
2022-10-23T06:54:05.848Z,87
2022-10-23T06:55:06.248Z,87
2022-10-23T06:56:06.946Z,87
2022-10-23T06:57:07.311Z,87
2022-10-23T06:58:07.685Z,87
2022-10-23T06:59:08.059Z,87
2022-10-23T07:00:08.466Z,87
2022-10-23T07:01:09.311Z,87
2022-10-23T07:02:09.795Z,87
2022-10-23T07:03:10.183Z,87
2022-10-23T07:04:10.588Z,87
2022-10-23T07:05:13.553Z,87
2022-10-23T07:06:14.716Z,87
2022-10-23T07:07:15.110Z,87
2022-10-23T07:08:15.472Z,87
2022-10-23T07:09:16.226Z,87
2022-10-23T07:10:16.643Z,87
2022-10-23T07:11:17.382Z,87
2022-10-23T07:12:17.788Z,87
2022-10-23T07:13:18.160Z,87
2022-10-23T07:14:18.542Z,87
2022-10-23T07:15:18.943Z,87
2022-10-23T07:16:19.782Z,87
2022-10-23T07:17:20.140Z,87
2022-10-23T07:18:20.542Z,87
2022-10-23T07:19:20.919Z,87
2022-10-23T07:20:21.342Z,87
2022-10-23T07:21:22.010Z,87
2022-10-23T07:22:22.404Z,87
2022-10-23T07:23:22.767Z,87
2022-10-23T07:24:23.483Z,87
2022-10-23T07:25:23.842Z,87
2022-10-23T07:26:24.623Z,87
2022-10-23T07:27:24.983Z,87
2022-10-23T07:28:25.350Z,87
2022-10-23T07:29:25.724Z,87
2022-10-23T07:30:26.214Z,87
2022-10-23T07:31:28.214Z,86
2022-10-23T07:32:28.895Z,86
2022-10-23T07:33:29.255Z,86
2022-10-23T07:34:29.653Z,86
2022-10-23T07:35:31.308Z,86
2022-10-23T07:36:33.991Z,86
2022-10-23T07:37:34.390Z,86
2022-10-23T07:38:34.798Z,86
2022-10-23T07:39:35.514Z,86
2022-10-23T07:40:35.922Z,86
2022-10-23T07:41:36.676Z,86
2022-10-23T07:42:37.056Z,86
2022-10-23T07:43:37.581Z,86
2022-10-23T07:44:37.983Z,86
2022-10-23T07:45:38.356Z,86
2022-10-23T07:46:39.179Z,86
2022-10-23T07:47:39.755Z,86
2022-10-23T07:48:40.305Z,86
2022-10-23T07:49:40.667Z,86
2022-10-23T07:50:41.027Z,86
2022-10-23T07:51:41.868Z,86
2022-10-23T07:52:42.564Z,86
2022-10-23T07:53:43.136Z,86
2022-10-23T07:54:43.944Z,86
2022-10-23T07:55:44.340Z,85
2022-10-23T07:56:45.156Z,85
2022-10-23T07:57:45.562Z,85
2022-10-23T07:58:45.926Z,85
2022-10-23T07:59:46.323Z,85
2022-10-23T08:00:46.713Z,84
2022-10-23T08:01:48.741Z,84
2022-10-23T08:02:49.911Z,84
2022-10-23T08:03:50.314Z,84
2022-10-23T08:04:50.688Z,84
2022-10-23T08:05:51.094Z,84
2022-10-23T08:06:51.840Z,84
2022-10-23T08:07:52.273Z,83
2022-10-23T08:08:52.708Z,83
2022-10-23T08:09:53.536Z,83
2022-10-23T08:10:53.898Z,83
2022-10-23T08:11:54.289Z,83
2022-10-23T08:12:54.691Z,82
2022-10-23T08:13:55.063Z,82
2022-10-23T08:14:55.452Z,82
2022-10-23T08:15:55.846Z,82
2022-10-23T08:16:56.330Z,82
2022-10-23T08:17:56.773Z,81
2022-10-23T08:18:57.170Z,81
2022-10-23T08:19:57.532Z,81
2022-10-23T08:20:57.910Z,81
2022-10-23T08:21:58.340Z,80
2022-10-23T08:22:58.765Z,80
2022-10-23T08:23:59.131Z,80
2022-10-23T08:24:59.945Z,80
2022-10-23T08:26:00.358Z,80
2022-10-23T08:27:01.048Z,79
2022-10-23T08:28:04.229Z,79
2022-10-23T08:29:06.709Z,79
2022-10-23T08:30:07.088Z,79
2022-10-23T08:31:07.483Z,79
2022-10-23T08:32:08.318Z,79
2022-10-23T08:33:08.732Z,79
2022-10-23T08:34:09.131Z,79
2022-10-23T08:35:09.514Z,78
2022-10-23T08:36:09.906Z,78
2022-10-23T08:37:10.638Z,78
2022-10-23T08:38:11.003Z,78
2022-10-23T08:39:11.364Z,78
2022-10-23T08:40:12.192Z,78
2022-10-23T08:41:12.585Z,78
2022-10-23T08:42:13.499Z,78
2022-10-23T08:43:13.870Z,78
2022-10-23T08:44:14.254Z,78
2022-10-23T08:45:14.658Z,77
2022-10-23T08:46:15.030Z,77
2022-10-23T08:47:15.777Z,77
2022-10-23T08:48:16.162Z,77
2022-10-23T08:49:16.529Z,77
2022-10-23T08:50:16.999Z,77
2022-10-23T08:51:17.451Z,77
2022-10-23T08:52:18.254Z,77
2022-10-23T08:53:18.624Z,76
2022-10-23T08:54:19.020Z,76
2022-10-23T08:55:19.831Z,76
2022-10-23T08:56:20.213Z,76
2022-10-23T08:57:21.047Z,76
2022-10-23T08:58:21.438Z,76
2022-10-23T08:59:21.840Z,76
2022-10-23T09:00:22.239Z,76
2022-10-23T09:01:22.738Z,76
2022-10-23T09:02:23.623Z,76
2022-10-23T09:03:24.071Z,76
2022-10-23T09:04:24.470Z,75
2022-10-23T09:05:24.860Z,75
2022-10-23T09:06:25.266Z,75
2022-10-23T09:07:26.027Z,75
2022-10-23T09:08:26.430Z,75
2022-10-23T09:09:26.823Z,75
2022-10-23T09:10:27.595Z,75
2022-10-23T09:11:27.974Z,75
2022-10-23T09:12:28.658Z,74
2022-10-23T09:13:29.051Z,74
2022-10-23T09:14:29.448Z,74
2022-10-23T09:15:29.853Z,74
2022-10-23T09:16:30.219Z,74
2022-10-23T09:17:31.041Z,74
2022-10-23T09:18:31.435Z,74
2022-10-23T09:19:31.809Z,74
2022-10-23T09:20:32.211Z,74
2022-10-23T09:21:32.601Z,74
2022-10-23T09:22:33.442Z,74
2022-10-23T09:23:33.800Z,74
2022-10-23T09:24:34.164Z,74
2022-10-23T09:25:34.927Z,74
2022-10-23T09:26:35.330Z,74
2022-10-23T09:27:36.105Z,74
2022-10-23T09:28:36.500Z,74
2022-10-23T09:29:36.857Z,74
2022-10-23T09:30:37.273Z,73
2022-10-23T09:31:37.633Z,73
2022-10-23T09:32:38.404Z,72
2022-10-23T09:33:38.795Z,72
2022-10-23T09:34:39.179Z,72
2022-10-23T09:35:39.537Z,72
2022-10-23T09:36:39.942Z,71
2022-10-23T09:37:40.934Z,71
2022-10-23T09:38:41.538Z,71
2022-10-23T09:39:41.939Z,71
2022-10-23T09:40:42.740Z,71
2022-10-23T09:41:43.145Z,71
2022-10-23T09:42:43.971Z,71
2022-10-23T09:43:44.335Z,71
2022-10-23T09:44:44.703Z,71
2022-10-23T09:45:45.106Z,71
2022-10-23T09:46:45.549Z,71
2022-10-23T09:47:46.324Z,71
2022-10-23T09:48:46.691Z,71
2022-10-23T09:49:47.125Z,71
2022-10-23T09:50:47.556Z,71
2022-10-23T09:51:47.970Z,70
2022-10-23T09:52:48.777Z,70
2022-10-23T09:53:49.176Z,70
2022-10-23T09:54:49.573Z,70
2022-10-23T09:55:50.287Z,70
2022-10-23T09:56:50.693Z,70
2022-10-23T09:57:51.283Z,70
2022-10-23T09:58:51.654Z,70
2022-10-23T09:59:52.030Z,70
2022-10-23T10:00:55.315Z,70
2022-10-23T10:01:55.959Z,70
2022-10-23T10:02:56.870Z,70
2022-10-23T10:03:57.263Z,70
2022-10-23T10:04:57.659Z,70
2022-10-23T10:05:58.026Z,70
2022-10-23T10:06:58.445Z,70
2022-10-23T10:07:59.127Z,70
2022-10-23T10:08:59.518Z,70
2022-10-23T10:09:59.910Z,70
2022-10-23T10:11:00.631Z,70
2022-10-23T10:12:00.999Z,70
2022-10-23T10:13:01.776Z,70
2022-10-23T10:14:02.180Z,70
2022-10-23T10:15:02.582Z,70
2022-10-23T10:16:02.943Z,70
2022-10-23T10:17:03.362Z,70
2022-10-23T10:18:04.065Z,70
2022-10-23T10:19:04.452Z,70
2022-10-23T10:20:07.013Z,70
2022-10-23T10:21:07.680Z,70
2022-10-23T10:22:08.048Z,70
2022-10-23T10:23:08.872Z,70
2022-10-23T10:24:09.298Z,70
2022-10-23T10:25:09.707Z,70
2022-10-23T10:26:10.478Z,70
2022-10-23T10:27:10.883Z,69
2022-10-23T10:28:11.633Z,69
2022-10-23T10:29:12.019Z,70
2022-10-23T10:30:12.438Z,70
2022-10-23T10:31:12.831Z,70
2022-10-23T10:32:13.192Z,70
2022-10-23T10:33:14.029Z,70
2022-10-23T10:34:14.449Z,70
2022-10-23T10:35:14.880Z,70
2022-10-23T10:36:15.352Z,70
2022-10-23T10:37:15.753Z,70
2022-10-23T10:38:16.595Z,70
2022-10-23T10:39:16.955Z,70
2022-10-23T10:40:17.355Z,70
2022-10-23T10:41:18.129Z,69
2022-10-23T10:42:18.526Z,69
2022-10-23T10:43:19.229Z,69
2022-10-23T10:44:19.637Z,69
2022-10-23T10:45:20.011Z,69
2022-10-23T10:46:20.443Z,69
2022-10-23T10:47:21.380Z,69
2022-10-23T10:48:22.344Z,70
2022-10-23T10:49:22.736Z,70
2022-10-23T10:50:23.095Z,69
2022-10-23T10:51:23.455Z,69
2022-10-23T10:52:23.849Z,69
2022-10-23T10:53:24.589Z,69
2022-10-23T10:54:24.964Z,69
2022-10-23T10:55:25.355Z,69
2022-10-23T10:56:26.163Z,69
2022-10-23T10:57:26.567Z,69
2022-10-23T10:58:27.293Z,69
2022-10-23T10:59:27.686Z,69
2022-10-23T11:00:28.122Z,68
2022-10-23T11:01:28.666Z,68
2022-10-23T11:02:29.158Z,68
2022-10-23T11:03:29.944Z,68
2022-10-23T11:04:30.350Z,68
2022-10-23T11:05:30.754Z,68
2022-10-23T11:06:31.148Z,68
2022-10-23T11:07:31.554Z,69
2022-10-23T11:08:36.835Z,69
2022-10-23T11:09:45.146Z,69
2022-10-23T11:10:45.517Z,68
2022-10-23T11:11:46.229Z,69
2022-10-23T11:12:46.628Z,69
2022-10-23T11:13:47.386Z,69
2022-10-23T11:14:47.799Z,69
2022-10-23T11:15:48.246Z,68
2022-10-23T11:16:48.720Z,68
2022-10-23T11:17:49.534Z,69
2022-10-23T11:18:50.373Z,68
2022-10-23T11:19:50.736Z,69
2022-10-23T11:20:51.135Z,69
2022-10-23T11:21:51.526Z,69
2022-10-23T11:22:51.930Z,69
2022-10-23T11:23:52.657Z,69
2022-10-23T11:24:54.581Z,68
2022-10-23T11:25:58.786Z,68
2022-10-23T11:26:59.193Z,68
2022-10-23T11:28:03.682Z,68
2022-10-23T11:29:06.084Z,68
2022-10-23T11:30:06.480Z,68
2022-10-23T11:31:10.927Z,68
2022-10-23T11:32:12.369Z,68
2022-10-23T11:33:12.728Z,68
2022-10-23T11:34:13.440Z,68
2022-10-23T11:35:13.851Z,68
2022-10-23T11:36:14.239Z,68
2022-10-23T11:37:14.617Z,68
2022-10-23T11:38:15.008Z,68
2022-10-23T11:39:15.848Z,68
2022-10-23T11:40:16.265Z,67
2022-10-23T11:41:19.876Z,67
2022-10-23T11:42:22.728Z,66
2022-10-23T11:43:23.137Z,65
2022-10-23T11:44:23.950Z,65
2022-10-23T11:45:24.359Z,65
2022-10-23T11:46:24.749Z,65
2022-10-23T11:47:25.156Z,65
2022-10-23T11:48:25.577Z,65
2022-10-23T11:49:26.355Z,64
2022-10-23T11:50:26.725Z,64
2022-10-23T11:51:27.109Z,64
2022-10-23T11:52:27.488Z,64
2022-10-23T11:53:27.864Z,64
2022-10-23T11:54:28.575Z,63
2022-10-23T11:55:28.931Z,63
2022-10-23T11:56:29.751Z,63
2022-10-23T11:58:30.496Z,63
2022-10-23T11:59:31.308Z,61
2022-10-23T12:00:31.668Z,61
2022-10-23T12:01:32.130Z,62
2022-10-23T12:02:32.759Z,61
2022-10-23T12:03:33.192Z,62
2022-10-23T12:04:33.891Z,61
2022-10-23T12:05:34.277Z,62
2022-10-23T12:06:34.688Z,62
2022-10-23T12:07:35.105Z,62
2022-10-23T12:08:35.497Z,62
2022-10-23T12:09:36.221Z,62
2022-10-23T12:10:36.642Z,62
2022-10-23T12:11:37.455Z,62
2022-10-23T12:12:37.872Z,62
2022-10-23T12:13:38.275Z,62
2022-10-23T12:14:38.719Z,62
2022-10-23T12:15:39.106Z,62
2022-10-23T12:16:39.496Z,62
2022-10-23T12:17:39.918Z,62
2022-10-23T12:18:40.289Z,62
2022-10-23T12:19:41.032Z,62
2022-10-23T12:20:41.398Z,62
2022-10-23T12:21:41.781Z,63
2022-10-23T12:22:42.183Z,63
2022-10-23T12:23:45.749Z,62
2022-10-23T12:24:48.933Z,63
2022-10-23T12:25:49.333Z,63
2022-10-23T12:26:50.162Z,63
2022-10-23T12:27:50.562Z,63
2022-10-23T12:28:50.932Z,63
2022-10-23T12:29:51.634Z,63
2022-10-23T12:30:52.101Z,63
2022-10-23T12:31:52.512Z,63
2022-10-23T12:32:52.879Z,63
2022-10-23T12:33:53.247Z,63
2022-10-23T12:34:54.072Z,63
2022-10-23T12:35:54.439Z,63
2022-10-23T12:36:54.830Z,63
2022-10-23T12:37:55.240Z,63
2022-10-23T12:38:55.640Z,63
2022-10-23T12:39:56.461Z,63
2022-10-23T12:40:56.859Z,63
2022-10-23T12:41:57.271Z,63
2022-10-23T12:42:57.681Z,63
2022-10-23T12:43:58.045Z,63
2022-10-23T12:44:58.761Z,63
2022-10-23T12:45:59.173Z,63
2022-10-23T12:46:59.538Z,63
2022-10-23T12:47:59.918Z,63
2022-10-23T12:49:00.295Z,63
2022-10-23T12:50:01.121Z,63
2022-10-23T12:51:01.486Z,63
2022-10-23T12:52:01.880Z,63
2022-10-23T12:53:02.284Z,63
2022-10-23T12:54:02.691Z,63
2022-10-23T12:55:03.460Z,63
2022-10-23T12:56:03.869Z,63
2022-10-23T12:57:04.665Z,63
2022-10-23T12:58:05.039Z,63
2022-10-23T12:59:05.433Z,63
2022-10-23T13:00:06.184Z,63
2022-10-23T13:01:06.786Z,63
2022-10-23T13:02:07.429Z,63
2022-10-23T13:03:07.941Z,63
2022-10-23T13:04:08.372Z,63
2022-10-23T13:05:09.185Z,64
2022-10-23T13:06:09.545Z,64
2022-10-23T13:07:09.949Z,64
2022-10-23T13:08:10.340Z,64
2022-10-23T13:09:10.724Z,63
2022-10-23T13:10:11.546Z,63
2022-10-23T13:11:11.951Z,63
2022-10-23T13:12:12.665Z,64
2022-10-23T13:13:13.059Z,63
2022-10-23T13:14:13.427Z,63
2022-10-23T13:15:14.256Z,63
2022-10-23T13:16:14.651Z,63
2022-10-23T13:17:15.008Z,63
2022-10-23T13:18:15.399Z,64
2022-10-23T13:19:15.759Z,64
2022-10-23T13:20:16.588Z,64
2022-10-23T13:21:17.001Z,65
2022-10-23T13:22:17.410Z,64
2022-10-23T13:23:17.773Z,64
2022-10-23T13:24:18.155Z,64
2022-10-23T13:25:18.883Z,64
2022-10-23T13:26:19.285Z,64
2022-10-23T13:27:20.045Z,64
2022-10-23T13:28:20.409Z,64
2022-10-23T13:29:20.848Z,64
2022-10-23T13:30:21.749Z,64
2022-10-23T13:31:22.150Z,65
2022-10-23T13:32:22.540Z,65
2022-10-23T13:33:22.917Z,65
2022-10-23T13:34:23.316Z,65
2022-10-23T13:35:24.114Z,65
2022-10-23T13:36:24.482Z,65
2022-10-23T13:37:24.885Z,65
2022-10-23T13:38:25.302Z,65
2022-10-23T13:39:25.692Z,65
2022-10-23T13:40:26.543Z,65
2022-10-23T13:41:26.951Z,65
2022-10-23T13:42:27.671Z,65
2022-10-23T13:43:28.073Z,65
2022-10-23T13:44:28.475Z,65
2022-10-23T13:45:29.269Z,65
2022-10-23T13:46:29.673Z,65
2022-10-23T13:47:30.063Z,65
2022-10-23T13:48:30.431Z,65
2022-10-23T13:49:30.834Z,65
2022-10-23T13:50:31.626Z,65
2022-10-23T13:51:31.992Z,65
2022-10-23T13:52:32.389Z,65
2022-10-23T13:53:32.747Z,65
2022-10-23T13:54:33.149Z,65
2022-10-23T13:55:33.899Z,65
2022-10-23T13:56:34.312Z,65
2022-10-23T13:57:35.096Z,65
2022-10-23T13:58:35.487Z,65
2022-10-23T13:59:35.865Z,65
2022-10-23T14:00:36.630Z,65
2022-10-23T14:01:37.127Z,65
2022-10-23T14:02:37.739Z,65
2022-10-23T14:03:38.212Z,65
2022-10-23T14:04:38.608Z,65
2022-10-23T14:05:39.386Z,65
2022-10-23T14:06:40.075Z,65
2022-10-23T14:07:40.630Z,65
2022-10-23T14:08:41.116Z,65
2022-10-23T14:09:41.477Z,65
2022-10-23T14:10:42.321Z,65
2022-10-23T14:11:42.727Z,65
2022-10-23T14:12:43.825Z,66
2022-10-23T14:13:44.465Z,66
2022-10-23T14:14:44.846Z,66
2022-10-23T14:15:45.654Z,66
2022-10-23T14:16:46.044Z,66
2022-10-23T14:17:46.447Z,66
2022-10-23T14:18:46.813Z,66
2022-10-23T14:19:47.190Z,66
2022-10-23T14:20:47.993Z,66
2022-10-23T14:21:48.373Z,66
2022-10-23T14:22:48.740Z,66
2022-10-23T14:23:49.131Z,66
2022-10-23T14:24:49.524Z,66
2022-10-23T14:25:50.210Z,66
2022-10-23T14:26:50.614Z,66